sensor_id;sensor_type;location;lat;lon;timestamp;P1;durP1;ratioP1;P2;durP2;ratioP2
8490;SDS011;4282;49.986;7.938;2023-02-28T00:01:13;1.80;;;1.13;;
8490;SDS011;4282;49.986;7.938;2023-02-28T00:03:42;1.93;;;1.40;;
8490;SDS011;4282;49.986;7.938;2023-02-28T00:06:10;1.57;;;1.40;;
8490;SDS011;4282;49.986;7.938;2023-02-28T00:08:38;1.30;;;1.20;;
8490;SDS011;4282;49.986;7.938;2023-02-28T00:11:08;1.50;;;1.33;;
8490;SDS011;4282;49.986;7.938;2023-02-28T00:13:40;2.70;;;1.40;;
8490;SDS011;4282;49.986;7.938;2023-02-28T00:16:12;1.60;;;1.50;;
8490;SDS011;4282;49.986;7.938;2023-02-28T00:18:41;2.60;;;1.53;;
8490;SDS011;4282;49.986;7.938;2023-02-28T00:21:10;3.93;;;1.67;;
8490;SDS011;4282;49.986;7.938;2023-02-28T00:23:38;2.07;;;1.50;;
8490;SDS011;4282;49.986;7.938;2023-02-28T00:26:06;1.50;;;1.40;;
8490;SDS011;4282;49.986;7.938;2023-02-28T00:28:34;2.43;;;1.30;;
8490;SDS011;4282;49.986;7.938;2023-02-28T00:31:05;1.97;;;1.43;;
8490;SDS011;4282;49.986;7.938;2023-02-28T00:33:34;2.07;;;1.83;;
8490;SDS011;4282;49.986;7.938;2023-02-28T00:36:03;1.37;;;1.00;;
8490;SDS011;4282;49.986;7.938;2023-02-28T00:38:32;2.10;;;1.90;;
8490;SDS011;4282;49.986;7.938;2023-02-28T00:41:01;1.40;;;1.30;;
8490;SDS011;4282;49.986;7.938;2023-02-28T00:43:32;1.47;;;1.13;;
8490;SDS011;4282;49.986;7.938;2023-02-28T00:46:00;2.73;;;1.33;;
8490;SDS011;4282;49.986;7.938;2023-02-28T00:48:32;2.77;;;1.60;;
8490;SDS011;4282;49.986;7.938;2023-02-28T00:51:00;2.10;;;1.40;;
8490;SDS011;4282;49.986;7.938;2023-02-28T00:53:29;1.50;;;1.40;;
8490;SDS011;4282;49.986;7.938;2023-02-28T00:55:57;1.53;;;1.30;;
8490;SDS011;4282;49.986;7.938;2023-02-28T00:58:26;2.07;;;1.73;;
8490;SDS011;4282;49.986;7.938;2023-02-28T01:00:54;2.13;;;1.70;;
8490;SDS011;4282;49.986;7.938;2023-02-28T01:03:22;3.03;;;1.60;;
8490;SDS011;4282;49.986;7.938;2023-02-28T01:05:53;3.10;;;1.80;;
8490;SDS011;4282;49.986;7.938;2023-02-28T01:08:22;1.93;;;1.73;;
8490;SDS011;4282;49.986;7.938;2023-02-28T01:10:51;2.43;;;1.80;;
8490;SDS011;4282;49.986;7.938;2023-02-28T01:13:19;1.47;;;1.37;;
8490;SDS011;4282;49.986;7.938;2023-02-28T01:15:49;2.63;;;1.40;;
8490;SDS011;4282;49.986;7.938;2023-02-28T01:18:18;2.20;;;1.77;;
8490;SDS011;4282;49.986;7.938;2023-02-28T01:20:47;2.10;;;1.83;;
8490;SDS011;4282;49.986;7.938;2023-02-28T01:23:19;1.83;;;1.50;;
8490;SDS011;4282;49.986;7.938;2023-02-28T01:25:48;2.93;;;1.90;;
8490;SDS011;4282;49.986;7.938;2023-02-28T01:28:17;3.00;;;1.73;;
8490;SDS011;4282;49.986;7.938;2023-02-28T01:30:47;1.77;;;1.67;;
8490;SDS011;4282;49.986;7.938;2023-02-28T01:33:15;1.90;;;1.70;;
8490;SDS011;4282;49.986;7.938;2023-02-28T01:35:44;1.70;;;1.60;;
8490;SDS011;4282;49.986;7.938;2023-02-28T01:38:12;3.17;;;2.00;;
8490;SDS011;4282;49.986;7.938;2023-02-28T01:40:43;1.83;;;1.60;;
8490;SDS011;4282;49.986;7.938;2023-02-28T01:43:16;3.03;;;2.27;;
8490;SDS011;4282;49.986;7.938;2023-02-28T01:45:48;3.93;;;1.83;;
8490;SDS011;4282;49.986;7.938;2023-02-28T01:48:17;2.00;;;1.63;;
8490;SDS011;4282;49.986;7.938;2023-02-28T01:50:46;3.37;;;2.00;;
8490;SDS011;4282;49.986;7.938;2023-02-28T01:53:16;2.33;;;1.77;;
8490;SDS011;4282;49.986;7.938;2023-02-28T01:55:49;3.00;;;1.60;;
8490;SDS011;4282;49.986;7.938;2023-02-28T01:58:19;2.73;;;1.33;;
8490;SDS011;4282;49.986;7.938;2023-02-28T02:00:47;2.37;;;2.03;;
8490;SDS011;4282;49.986;7.938;2023-02-28T02:03:17;2.27;;;2.07;;
8490;SDS011;4282;49.986;7.938;2023-02-28T02:05:46;2.43;;;2.07;;
8490;SDS011;4282;49.986;7.938;2023-02-28T02:08:16;2.27;;;1.80;;
8490;SDS011;4282;49.986;7.938;2023-02-28T02:10:50;2.87;;;1.67;;
8490;SDS011;4282;49.986;7.938;2023-02-28T02:13:22;2.67;;;1.80;;
8490;SDS011;4282;49.986;7.938;2023-02-28T02:15:57;1.87;;;1.77;;
8490;SDS011;4282;49.986;7.938;2023-02-28T02:18:31;3.07;;;1.90;;
8490;SDS011;4282;49.986;7.938;2023-02-28T02:24:21;3.17;;;2.10;;
8490;SDS011;4282;49.986;7.938;2023-02-28T02:27:08;2.77;;;2.20;;
8490;SDS011;4282;49.986;7.938;2023-02-28T02:35:31;1.97;;;1.77;;
8490;SDS011;4282;49.986;7.938;2023-02-28T02:38:05;3.27;;;2.47;;
8490;SDS011;4282;49.986;7.938;2023-02-28T02:40:37;2.27;;;1.90;;
8490;SDS011;4282;49.986;7.938;2023-02-28T02:43:11;2.20;;;2.00;;
8490;SDS011;4282;49.986;7.938;2023-02-28T02:45:42;2.73;;;2.07;;
8490;SDS011;4282;49.986;7.938;2023-02-28T02:48:14;2.97;;;2.00;;
8490;SDS011;4282;49.986;7.938;2023-02-28T02:50:48;3.97;;;2.03;;
8490;SDS011;4282;49.986;7.938;2023-02-28T02:53:19;2.10;;;1.90;;
8490;SDS011;4282;49.986;7.938;2023-02-28T02:55:50;2.27;;;1.90;;
8490;SDS011;4282;49.986;7.938;2023-02-28T02:58:20;4.30;;;1.90;;
8490;SDS011;4282;49.986;7.938;2023-02-28T03:00:52;3.50;;;2.17;;
8490;SDS011;4282;49.986;7.938;2023-02-28T03:03:22;1.73;;;1.63;;
8490;SDS011;4282;49.986;7.938;2023-02-28T03:05:56;3.10;;;2.03;;
8490;SDS011;4282;49.986;7.938;2023-02-28T03:08:26;4.10;;;1.90;;
8490;SDS011;4282;49.986;7.938;2023-02-28T03:10:56;2.13;;;1.60;;
8490;SDS011;4282;49.986;7.938;2023-02-28T03:13:37;1.60;;;1.50;;
8490;SDS011;4282;49.986;7.938;2023-02-28T03:19:16;1.90;;;1.60;;
8490;SDS011;4282;49.986;7.938;2023-02-28T03:21:56;1.90;;;1.80;;
8490;SDS011;4282;49.986;7.938;2023-02-28T03:24:32;3.10;;;1.50;;
8490;SDS011;4282;49.986;7.938;2023-02-28T03:27:06;1.53;;;1.43;;
8490;SDS011;4282;49.986;7.938;2023-02-28T03:29:37;1.90;;;1.57;;
8490;SDS011;4282;49.986;7.938;2023-02-28T03:32:08;2.73;;;1.70;;
8490;SDS011;4282;49.986;7.938;2023-02-28T03:34:43;2.17;;;1.57;;
8490;SDS011;4282;49.986;7.938;2023-02-28T03:37:18;2.00;;;1.47;;
8490;SDS011;4282;49.986;7.938;2023-02-28T03:39:49;1.80;;;1.70;;
8490;SDS011;4282;49.986;7.938;2023-02-28T03:42:21;2.10;;;1.87;;
8490;SDS011;4282;49.986;7.938;2023-02-28T03:44:52;1.83;;;1.60;;
8490;SDS011;4282;49.986;7.938;2023-02-28T03:47:23;2.10;;;1.90;;
8490;SDS011;4282;49.986;7.938;2023-02-28T03:49:53;3.13;;;1.67;;
8490;SDS011;4282;49.986;7.938;2023-02-28T03:52:27;2.20;;;1.87;;
8490;SDS011;4282;49.986;7.938;2023-02-28T03:54:59;2.20;;;1.57;;
8490;SDS011;4282;49.986;7.938;2023-02-28T03:57:33;1.50;;;1.40;;
8490;SDS011;4282;49.986;7.938;2023-02-28T04:00:05;1.90;;;1.70;;
8490;SDS011;4282;49.986;7.938;2023-02-28T04:02:36;1.60;;;1.50;;
8490;SDS011;4282;49.986;7.938;2023-02-28T04:05:05;2.30;;;1.80;;
8490;SDS011;4282;49.986;7.938;2023-02-28T04:07:36;2.10;;;1.67;;
8490;SDS011;4282;49.986;7.938;2023-02-28T04:10:06;2.90;;;1.77;;
8490;SDS011;4282;49.986;7.938;2023-02-28T04:12:34;1.83;;;1.70;;
8490;SDS011;4282;49.986;7.938;2023-02-28T04:15:03;1.73;;;1.60;;
8490;SDS011;4282;49.986;7.938;2023-02-28T04:17:32;5.67;;;1.80;;
8490;SDS011;4282;49.986;7.938;2023-02-28T04:20:01;1.50;;;1.30;;
8490;SDS011;4282;49.986;7.938;2023-02-28T04:22:37;2.70;;;1.70;;
8490;SDS011;4282;49.986;7.938;2023-02-28T04:25:05;3.30;;;1.60;;
8490;SDS011;4282;49.986;7.938;2023-02-28T04:27:34;2.03;;;1.67;;
8490;SDS011;4282;49.986;7.938;2023-02-28T04:30:03;3.70;;;1.80;;
8490;SDS011;4282;49.986;7.938;2023-02-28T04:32:32;1.80;;;1.33;;
8490;SDS011;4282;49.986;7.938;2023-02-28T04:35:00;3.47;;;1.90;;
8490;SDS011;4282;49.986;7.938;2023-02-28T04:37:28;2.67;;;1.90;;
8490;SDS011;4282;49.986;7.938;2023-02-28T04:40:02;2.10;;;1.87;;
8490;SDS011;4282;49.986;7.938;2023-02-28T04:42:32;1.70;;;1.60;;
8490;SDS011;4282;49.986;7.938;2023-02-28T04:45:00;1.93;;;1.73;;
8490;SDS011;4282;49.986;7.938;2023-02-28T04:47:28;2.00;;;1.80;;
8490;SDS011;4282;49.986;7.938;2023-02-28T04:49:57;2.40;;;1.60;;
8490;SDS011;4282;49.986;7.938;2023-02-28T04:52:25;2.77;;;2.00;;
8490;SDS011;4282;49.986;7.938;2023-02-28T04:54:55;2.30;;;1.93;;
8490;SDS011;4282;49.986;7.938;2023-02-28T04:57:25;2.13;;;1.90;;
8490;SDS011;4282;49.986;7.938;2023-02-28T04:59:55;1.67;;;1.33;;
8490;SDS011;4282;49.986;7.938;2023-02-28T05:02:23;2.10;;;1.90;;
8490;SDS011;4282;49.986;7.938;2023-02-28T05:04:51;2.30;;;1.93;;
8490;SDS011;4282;49.986;7.938;2023-02-28T05:07:19;3.50;;;2.00;;
8490;SDS011;4282;49.986;7.938;2023-02-28T05:09:47;1.47;;;1.37;;
8490;SDS011;4282;49.986;7.938;2023-02-28T05:12:16;2.83;;;2.17;;
8490;SDS011;4282;49.986;7.938;2023-02-28T05:14:47;2.13;;;1.47;;
8490;SDS011;4282;49.986;7.938;2023-02-28T05:17:15;3.40;;;2.10;;
8490;SDS011;4282;49.986;7.938;2023-02-28T05:19:43;1.97;;;1.60;;
8490;SDS011;4282;49.986;7.938;2023-02-28T05:22:12;3.17;;;1.80;;
8490;SDS011;4282;49.986;7.938;2023-02-28T05:24:41;2.50;;;1.80;;
8490;SDS011;4282;49.986;7.938;2023-02-28T05:27:10;2.63;;;1.83;;
8490;SDS011;4282;49.986;7.938;2023-02-28T05:29:38;3.23;;;1.80;;
8490;SDS011;4282;49.986;7.938;2023-02-28T05:32:12;2.77;;;2.20;;
8490;SDS011;4282;49.986;7.938;2023-02-28T05:34:40;2.73;;;1.87;;
8490;SDS011;4282;49.986;7.938;2023-02-28T05:37:10;2.37;;;1.80;;
8490;SDS011;4282;49.986;7.938;2023-02-28T05:39:40;2.07;;;1.50;;
8490;SDS011;4282;49.986;7.938;2023-02-28T05:42:09;1.77;;;1.60;;
8490;SDS011;4282;49.986;7.938;2023-02-28T05:44:37;2.40;;;1.90;;
8490;SDS011;4282;49.986;7.938;2023-02-28T05:47:05;3.10;;;2.00;;
8490;SDS011;4282;49.986;7.938;2023-02-28T05:49:36;2.60;;;2.27;;
8490;SDS011;4282;49.986;7.938;2023-02-28T05:52:04;3.77;;;1.77;;
8490;SDS011;4282;49.986;7.938;2023-02-28T05:54:32;3.37;;;2.37;;
8490;SDS011;4282;49.986;7.938;2023-02-28T05:57:00;2.57;;;1.67;;
8490;SDS011;4282;49.986;7.938;2023-02-28T05:59:29;2.27;;;1.60;;
8490;SDS011;4282;49.986;7.938;2023-02-28T06:01:57;2.33;;;1.43;;
8490;SDS011;4282;49.986;7.938;2023-02-28T06:04:25;3.13;;;1.93;;
8490;SDS011;4282;49.986;7.938;2023-02-28T06:06:56;1.90;;;1.77;;
8490;SDS011;4282;49.986;7.938;2023-02-28T06:09:24;2.20;;;1.63;;
8490;SDS011;4282;49.986;7.938;2023-02-28T06:11:53;1.80;;;1.43;;
8490;SDS011;4282;49.986;7.938;2023-02-28T06:14:21;5.00;;;2.40;;
8490;SDS011;4282;49.986;7.938;2023-02-28T06:16:49;2.67;;;1.80;;
8490;SDS011;4282;49.986;7.938;2023-02-28T06:19:18;1.87;;;1.67;;
8490;SDS011;4282;49.986;7.938;2023-02-28T06:21:48;3.07;;;1.80;;
8490;SDS011;4282;49.986;7.938;2023-02-28T06:24:20;2.13;;;1.70;;
8490;SDS011;4282;49.986;7.938;2023-02-28T06:26:50;3.20;;;2.00;;
8490;SDS011;4282;49.986;7.938;2023-02-28T06:29:18;2.80;;;2.23;;
8490;SDS011;4282;49.986;7.938;2023-02-28T06:31:46;3.50;;;2.17;;
8490;SDS011;4282;49.986;7.938;2023-02-28T06:34:15;2.73;;;2.00;;
8490;SDS011;4282;49.986;7.938;2023-02-28T06:36:43;1.43;;;1.33;;
8490;SDS011;4282;49.986;7.938;2023-02-28T06:39:11;2.77;;;1.70;;
8490;SDS011;4282;49.986;7.938;2023-02-28T06:41:42;2.20;;;1.70;;
8490;SDS011;4282;49.986;7.938;2023-02-28T06:44:11;2.00;;;1.73;;
8490;SDS011;4282;49.986;7.938;2023-02-28T06:46:40;1.70;;;1.60;;
8490;SDS011;4282;49.986;7.938;2023-02-28T06:49:08;4.40;;;1.83;;
8490;SDS011;4282;49.986;7.938;2023-02-28T06:51:37;2.60;;;1.83;;
8490;SDS011;4282;49.986;7.938;2023-02-28T06:54:06;1.77;;;1.23;;
8490;SDS011;4282;49.986;7.938;2023-02-28T06:56:36;2.37;;;1.90;;
8490;SDS011;4282;49.986;7.938;2023-02-28T06:59:07;2.70;;;2.00;;
8490;SDS011;4282;49.986;7.938;2023-02-28T07:01:35;3.77;;;2.00;;
8490;SDS011;4282;49.986;7.938;2023-02-28T07:04:04;3.00;;;2.40;;
8490;SDS011;4282;49.986;7.938;2023-02-28T07:06:33;4.57;;;2.43;;
8490;SDS011;4282;49.986;7.938;2023-02-28T07:09:01;4.37;;;2.10;;
8490;SDS011;4282;49.986;7.938;2023-02-28T07:11:30;3.17;;;2.30;;
8490;SDS011;4282;49.986;7.938;2023-02-28T07:13:58;3.10;;;2.13;;
8490;SDS011;4282;49.986;7.938;2023-02-28T07:16:29;2.63;;;2.03;;
8490;SDS011;4282;49.986;7.938;2023-02-28T07:18:57;5.73;;;1.90;;
8490;SDS011;4282;49.986;7.938;2023-02-28T07:21:25;1.63;;;1.43;;
8490;SDS011;4282;49.986;7.938;2023-02-28T07:23:55;2.73;;;1.67;;
8490;SDS011;4282;49.986;7.938;2023-02-28T07:26:24;2.43;;;1.90;;
8490;SDS011;4282;49.986;7.938;2023-02-28T07:28:52;1.40;;;1.30;;
8490;SDS011;4282;49.986;7.938;2023-02-28T07:31:20;1.90;;;1.70;;
8490;SDS011;4282;49.986;7.938;2023-02-28T07:33:51;1.57;;;1.47;;
8490;SDS011;4282;49.986;7.938;2023-02-28T07:36:21;2.27;;;1.50;;
8490;SDS011;4282;49.986;7.938;2023-02-28T07:38:49;3.23;;;1.60;;
8490;SDS011;4282;49.986;7.938;2023-02-28T07:41:19;1.23;;;1.13;;
8490;SDS011;4282;49.986;7.938;2023-02-28T07:43:48;1.87;;;1.70;;
8490;SDS011;4282;49.986;7.938;2023-02-28T07:46:17;1.97;;;1.50;;
8490;SDS011;4282;49.986;7.938;2023-02-28T07:48:46;1.20;;;1.10;;
8490;SDS011;4282;49.986;7.938;2023-02-28T07:51:17;4.70;;;1.43;;
8490;SDS011;4282;49.986;7.938;2023-02-28T07:53:45;1.87;;;1.57;;
8490;SDS011;4282;49.986;7.938;2023-02-28T07:56:14;1.80;;;1.60;;
8490;SDS011;4282;49.986;7.938;2023-02-28T07:58:42;2.27;;;1.87;;
8490;SDS011;4282;49.986;7.938;2023-02-28T08:01:10;2.10;;;1.57;;
8490;SDS011;4282;49.986;7.938;2023-02-28T08:03:39;2.57;;;1.43;;
8490;SDS011;4282;49.986;7.938;2023-02-28T08:06:08;1.83;;;1.23;;
8490;SDS011;4282;49.986;7.938;2023-02-28T08:08:46;1.50;;;1.20;;
8490;SDS011;4282;49.986;7.938;2023-02-28T08:11:15;1.83;;;1.50;;
8490;SDS011;4282;49.986;7.938;2023-02-28T08:13:44;2.40;;;1.73;;
8490;SDS011;4282;49.986;7.938;2023-02-28T08:16:12;2.33;;;0.90;;
8490;SDS011;4282;49.986;7.938;2023-02-28T08:18:46;1.70;;;1.57;;
8490;SDS011;4282;49.986;7.938;2023-02-28T08:21:17;1.73;;;1.57;;
8490;SDS011;4282;49.986;7.938;2023-02-28T08:23:46;1.93;;;1.70;;
8490;SDS011;4282;49.986;7.938;2023-02-28T08:26:15;1.40;;;1.30;;
8490;SDS011;4282;49.986;7.938;2023-02-28T08:28:43;1.70;;;1.47;;
8490;SDS011;4282;49.986;7.938;2023-02-28T08:31:13;1.63;;;1.30;;
8490;SDS011;4282;49.986;7.938;2023-02-28T08:33:42;2.07;;;1.80;;
8490;SDS011;4282;49.986;7.938;2023-02-28T08:36:13;1.37;;;1.20;;
8490;SDS011;4282;49.986;7.938;2023-02-28T08:38:44;1.80;;;1.70;;
8490;SDS011;4282;49.986;7.938;2023-02-28T08:41:13;3.50;;;2.10;;
8490;SDS011;4282;49.986;7.938;2023-02-28T08:43:41;1.50;;;1.40;;
8490;SDS011;4282;49.986;7.938;2023-02-28T08:46:10;2.63;;;1.60;;
8490;SDS011;4282;49.986;7.938;2023-02-28T08:48:39;2.63;;;1.77;;
8490;SDS011;4282;49.986;7.938;2023-02-28T08:51:09;2.43;;;1.90;;
8490;SDS011;4282;49.986;7.938;2023-02-28T08:53:39;3.93;;;2.00;;
8490;SDS011;4282;49.986;7.938;2023-02-28T08:56:11;3.43;;;2.07;;
8490;SDS011;4282;49.986;7.938;2023-02-28T08:58:42;2.20;;;1.87;;
8490;SDS011;4282;49.986;7.938;2023-02-28T09:01:11;3.23;;;1.93;;
8490;SDS011;4282;49.986;7.938;2023-02-28T09:03:41;4.93;;;2.23;;
8490;SDS011;4282;49.986;7.938;2023-02-28T09:06:11;5.10;;;2.03;;
8490;SDS011;4282;49.986;7.938;2023-02-28T09:08:40;3.63;;;2.07;;
8490;SDS011;4282;49.986;7.938;2023-02-28T09:11:11;2.80;;;1.63;;
8490;SDS011;4282;49.986;7.938;2023-02-28T09:13:40;2.00;;;1.90;;
8490;SDS011;4282;49.986;7.938;2023-02-28T09:16:09;3.00;;;2.70;;
8490;SDS011;4282;49.986;7.938;2023-02-28T09:18:39;4.40;;;2.70;;
8490;SDS011;4282;49.986;7.938;2023-02-28T09:21:08;3.50;;;2.70;;
8490;SDS011;4282;49.986;7.938;2023-02-28T09:23:39;3.87;;;3.07;;
8490;SDS011;4282;49.986;7.938;2023-02-28T09:26:07;4.83;;;3.00;;
8490;SDS011;4282;49.986;7.938;2023-02-28T09:28:40;4.77;;;2.93;;
8490;SDS011;4282;49.986;7.938;2023-02-28T09:31:11;3.07;;;2.80;;
8490;SDS011;4282;49.986;7.938;2023-02-28T09:33:40;4.67;;;3.40;;
8490;SDS011;4282;49.986;7.938;2023-02-28T09:36:08;3.37;;;2.77;;
8490;SDS011;4282;49.986;7.938;2023-02-28T09:38:37;3.13;;;2.70;;
8490;SDS011;4282;49.986;7.938;2023-02-28T09:41:12;4.17;;;2.80;;
8490;SDS011;4282;49.986;7.938;2023-02-28T09:43:43;3.87;;;2.23;;
8490;SDS011;4282;49.986;7.938;2023-02-28T09:49:00;2.77;;;1.93;;
8490;SDS011;4282;49.986;7.938;2023-02-28T09:51:33;4.43;;;2.83;;
8490;SDS011;4282;49.986;7.938;2023-02-28T09:54:09;1.97;;;1.70;;
8490;SDS011;4282;49.986;7.938;2023-02-28T09:56:47;2.77;;;2.00;;
8490;SDS011;4282;49.986;7.938;2023-02-28T10:02:14;3.37;;;2.03;;
8490;SDS011;4282;49.986;7.938;2023-02-28T10:04:50;4.40;;;3.27;;
8490;SDS011;4282;49.986;7.938;2023-02-28T10:07:23;4.63;;;3.10;;
8490;SDS011;4282;49.986;7.938;2023-02-28T10:10:05;4.20;;;2.60;;
8490;SDS011;4282;49.986;7.938;2023-02-28T10:12:41;3.57;;;2.63;;
8490;SDS011;4282;49.986;7.938;2023-02-28T10:15:14;3.07;;;2.77;;
8490;SDS011;4282;49.986;7.938;2023-02-28T10:17:44;1.73;;;1.63;;
8490;SDS011;4282;49.986;7.938;2023-02-28T10:20:17;3.90;;;2.53;;
8490;SDS011;4282;49.986;7.938;2023-02-28T10:22:50;3.57;;;2.40;;
8490;SDS011;4282;49.986;7.938;2023-02-28T10:25:22;3.40;;;3.10;;
8490;SDS011;4282;49.986;7.938;2023-02-28T10:27:55;3.33;;;2.43;;
8490;SDS011;4282;49.986;7.938;2023-02-28T10:30:28;3.83;;;2.67;;
8490;SDS011;4282;49.986;7.938;2023-02-28T10:32:56;5.13;;;3.50;;
8490;SDS011;4282;49.986;7.938;2023-02-28T10:35:25;5.63;;;3.17;;
8490;SDS011;4282;49.986;7.938;2023-02-28T10:37:54;3.10;;;2.47;;
8490;SDS011;4282;49.986;7.938;2023-02-28T10:40:26;4.73;;;2.30;;
8490;SDS011;4282;49.986;7.938;2023-02-28T10:43:00;2.90;;;2.57;;
8490;SDS011;4282;49.986;7.938;2023-02-28T10:45:30;2.50;;;2.20;;
8490;SDS011;4282;49.986;7.938;2023-02-28T10:48:02;3.77;;;2.90;;
8490;SDS011;4282;49.986;7.938;2023-02-28T10:50:36;2.83;;;2.53;;
8490;SDS011;4282;49.986;7.938;2023-02-28T10:53:22;3.10;;;2.77;;
8490;SDS011;4282;49.986;7.938;2023-02-28T10:55:58;2.30;;;2.10;;
8490;SDS011;4282;49.986;7.938;2023-02-28T10:58:30;3.77;;;2.53;;
8490;SDS011;4282;49.986;7.938;2023-02-28T11:01:00;4.57;;;2.60;;
8490;SDS011;4282;49.986;7.938;2023-02-28T11:03:29;4.80;;;3.33;;
8490;SDS011;4282;49.986;7.938;2023-02-28T11:06:04;4.27;;;3.30;;
8490;SDS011;4282;49.986;7.938;2023-02-28T11:08:33;3.47;;;2.63;;
8490;SDS011;4282;49.986;7.938;2023-02-28T11:11:03;2.83;;;2.27;;
8490;SDS011;4282;49.986;7.938;2023-02-28T11:13:36;3.90;;;2.80;;
8490;SDS011;4282;49.986;7.938;2023-02-28T11:16:06;3.23;;;2.93;;
8490;SDS011;4282;49.986;7.938;2023-02-28T11:18:37;3.83;;;2.90;;
8490;SDS011;4282;49.986;7.938;2023-02-28T11:21:07;4.67;;;3.03;;
8490;SDS011;4282;49.986;7.938;2023-02-28T11:23:37;4.90;;;3.60;;
8490;SDS011;4282;49.986;7.938;2023-02-28T11:26:08;4.40;;;2.27;;
8490;SDS011;4282;49.986;7.938;2023-02-28T11:28:40;4.47;;;3.53;;
8490;SDS011;4282;49.986;7.938;2023-02-28T11:31:16;5.03;;;3.93;;
8490;SDS011;4282;49.986;7.938;2023-02-28T11:33:48;2.80;;;2.07;;
8490;SDS011;4282;49.986;7.938;2023-02-28T11:36:18;4.20;;;2.73;;
8490;SDS011;4282;49.986;7.938;2023-02-28T11:38:49;3.00;;;2.43;;
8490;SDS011;4282;49.986;7.938;2023-02-28T11:44:19;5.43;;;3.60;;
8490;SDS011;4282;49.986;7.938;2023-02-28T11:46:54;3.87;;;3.00;;
8490;SDS011;4282;49.986;7.938;2023-02-28T11:49:29;3.50;;;3.03;;
8490;SDS011;4282;49.986;7.938;2023-02-28T11:52:01;6.73;;;3.60;;
8490;SDS011;4282;49.986;7.938;2023-02-28T11:54:45;4.75;;;4.20;;
8490;SDS011;4282;49.986;7.938;2023-02-28T11:57:24;4.50;;;4.10;;
8490;SDS011;4282;49.986;7.938;2023-02-28T12:00:11;4.17;;;3.47;;
8490;SDS011;4282;49.986;7.938;2023-02-28T12:02:57;4.90;;;3.73;;
8490;SDS011;4282;49.986;7.938;2023-02-28T12:05:31;3.50;;;3.17;;
8490;SDS011;4282;49.986;7.938;2023-02-28T12:08:07;4.87;;;4.10;;
8490;SDS011;4282;49.986;7.938;2023-02-28T12:10:44;3.60;;;3.20;;
8490;SDS011;4282;49.986;7.938;2023-02-28T12:13:21;4.67;;;4.07;;
8490;SDS011;4282;49.986;7.938;2023-02-28T12:16:03;4.90;;;4.00;;
8490;SDS011;4282;49.986;7.938;2023-02-28T12:18:48;4.57;;;3.97;;
8490;SDS011;4282;49.986;7.938;2023-02-28T12:21:39;4.07;;;3.77;;
8490;SDS011;4282;49.986;7.938;2023-02-28T12:24:20;5.07;;;3.97;;
8490;SDS011;4282;49.986;7.938;2023-02-28T12:27:05;4.63;;;4.13;;
8490;SDS011;4282;49.986;7.938;2023-02-28T12:29:39;4.37;;;3.70;;
8490;SDS011;4282;49.986;7.938;2023-02-28T12:32:16;6.63;;;3.97;;
8490;SDS011;4282;49.986;7.938;2023-02-28T12:34:49;3.70;;;3.40;;
8490;SDS011;4282;49.986;7.938;2023-02-28T12:37:21;5.73;;;4.43;;
8490;SDS011;4282;49.986;7.938;2023-02-28T12:39:54;5.30;;;3.37;;
8490;SDS011;4282;49.986;7.938;2023-02-28T12:42:24;4.93;;;2.70;;
8490;SDS011;4282;49.986;7.938;2023-02-28T12:44:56;5.43;;;3.97;;
8490;SDS011;4282;49.986;7.938;2023-02-28T12:47:29;3.93;;;3.57;;
8490;SDS011;4282;49.986;7.938;2023-02-28T12:49:58;5.17;;;4.67;;
8490;SDS011;4282;49.986;7.938;2023-02-28T12:52:29;5.77;;;3.93;;
8490;SDS011;4282;49.986;7.938;2023-02-28T12:55:04;4.73;;;3.70;;
8490;SDS011;4282;49.986;7.938;2023-02-28T12:57:40;4.37;;;3.30;;
8490;SDS011;4282;49.986;7.938;2023-02-28T13:00:12;4.67;;;4.03;;
8490;SDS011;4282;49.986;7.938;2023-02-28T13:08:47;5.77;;;4.00;;
8490;SDS011;4282;49.986;7.938;2023-02-28T13:11:28;6.43;;;4.47;;
8490;SDS011;4282;49.986;7.938;2023-02-28T13:13:58;5.00;;;3.90;;
8490;SDS011;4282;49.986;7.938;2023-02-28T13:16:27;4.43;;;3.90;;
8490;SDS011;4282;49.986;7.938;2023-02-28T13:19:10;3.90;;;2.77;;
8490;SDS011;4282;49.986;7.938;2023-02-28T13:21:42;3.50;;;3.07;;
8490;SDS011;4282;49.986;7.938;2023-02-28T13:24:12;5.90;;;4.23;;
8490;SDS011;4282;49.986;7.938;2023-02-28T13:27:11;4.80;;;4.13;;
8490;SDS011;4282;49.986;7.938;2023-02-28T13:29:58;4.53;;;3.80;;
8490;SDS011;4282;49.986;7.938;2023-02-28T13:38:13;5.03;;;3.53;;
8490;SDS011;4282;49.986;7.938;2023-02-28T13:40:53;4.27;;;3.27;;
8490;SDS011;4282;49.986;7.938;2023-02-28T13:43:24;4.93;;;3.33;;
8490;SDS011;4282;49.986;7.938;2023-02-28T13:46:31;4.37;;;3.60;;
8490;SDS011;4282;49.986;7.938;2023-02-28T13:51:47;3.57;;;3.23;;
8490;SDS011;4282;49.986;7.938;2023-02-28T13:54:24;4.33;;;3.57;;
8490;SDS011;4282;49.986;7.938;2023-02-28T13:57:07;4.17;;;3.53;;
8490;SDS011;4282;49.986;7.938;2023-02-28T13:59:47;4.83;;;4.00;;
8490;SDS011;4282;49.986;7.938;2023-02-28T14:05:12;6.37;;;4.20;;
8490;SDS011;4282;49.986;7.938;2023-02-28T14:07:43;4.73;;;3.70;;
8490;SDS011;4282;49.986;7.938;2023-02-28T14:10:26;5.63;;;3.43;;
8490;SDS011;4282;49.986;7.938;2023-02-28T14:13:01;7.73;;;4.40;;
8490;SDS011;4282;49.986;7.938;2023-02-28T14:15:54;6.07;;;3.77;;
8490;SDS011;4282;49.986;7.938;2023-02-28T14:18:25;6.23;;;4.80;;
8490;SDS011;4282;49.986;7.938;2023-02-28T14:21:08;6.03;;;5.00;;
8490;SDS011;4282;49.986;7.938;2023-02-28T14:23:48;7.70;;;4.57;;
8490;SDS011;4282;49.986;7.938;2023-02-28T14:26:33;6.20;;;3.57;;
8490;SDS011;4282;49.986;7.938;2023-02-28T14:29:23;5.73;;;3.67;;
8490;SDS011;4282;49.986;7.938;2023-02-28T14:32:01;21.40;;;4.80;;
8490;SDS011;4282;49.986;7.938;2023-02-28T14:34:35;5.33;;;4.47;;
8490;SDS011;4282;49.986;7.938;2023-02-28T14:37:09;5.30;;;4.03;;
8490;SDS011;4282;49.986;7.938;2023-02-28T14:39:41;5.30;;;4.13;;
8490;SDS011;4282;49.986;7.938;2023-02-28T14:45:00;4.63;;;3.40;;
8490;SDS011;4282;49.986;7.938;2023-02-28T14:47:30;5.43;;;3.70;;
8490;SDS011;4282;49.986;7.938;2023-02-28T14:49:59;9.63;;;4.47;;
8490;SDS011;4282;49.986;7.938;2023-02-28T14:52:29;5.93;;;4.43;;
8490;SDS011;4282;49.986;7.938;2023-02-28T14:54:59;6.73;;;3.93;;
8490;SDS011;4282;49.986;7.938;2023-02-28T14:57:30;4.30;;;3.43;;
8490;SDS011;4282;49.986;7.938;2023-02-28T15:00:03;4.20;;;3.80;;
8490;SDS011;4282;49.986;7.938;2023-02-28T15:02:35;4.63;;;4.20;;
8490;SDS011;4282;49.986;7.938;2023-02-28T15:05:15;5.20;;;4.70;;
8490;SDS011;4282;49.986;7.938;2023-02-28T15:08:01;4.70;;;4.00;;
8490;SDS011;4282;49.986;7.938;2023-02-28T15:10:30;4.60;;;3.43;;
8490;SDS011;4282;49.986;7.938;2023-02-28T15:12:59;4.30;;;3.60;;
8490;SDS011;4282;49.986;7.938;2023-02-28T15:15:34;5.10;;;3.77;;
8490;SDS011;4282;49.986;7.938;2023-02-28T15:18:08;3.67;;;3.20;;
8490;SDS011;4282;49.986;7.938;2023-02-28T15:20:41;5.47;;;4.27;;
8490;SDS011;4282;49.986;7.938;2023-02-28T15:23:10;3.17;;;2.67;;
8490;SDS011;4282;49.986;7.938;2023-02-28T15:25:39;3.77;;;2.67;;
8490;SDS011;4282;49.986;7.938;2023-02-28T15:28:10;6.17;;;5.57;;
8490;SDS011;4282;49.986;7.938;2023-02-28T15:30:53;3.13;;;2.80;;
8490;SDS011;4282;49.986;7.938;2023-02-28T15:33:23;4.30;;;3.87;;
8490;SDS011;4282;49.986;7.938;2023-02-28T15:36:03;4.33;;;3.43;;
8490;SDS011;4282;49.986;7.938;2023-02-28T15:38:33;3.17;;;2.90;;
8490;SDS011;4282;49.986;7.938;2023-02-28T15:41:03;6.57;;;4.33;;
8490;SDS011;4282;49.986;7.938;2023-02-28T15:43:34;3.77;;;3.10;;
8490;SDS011;4282;49.986;7.938;2023-02-28T15:46:06;4.37;;;3.33;;
8490;SDS011;4282;49.986;7.938;2023-02-28T15:48:36;4.57;;;3.53;;
8490;SDS011;4282;49.986;7.938;2023-02-28T15:51:06;4.50;;;2.67;;
8490;SDS011;4282;49.986;7.938;2023-02-28T15:53:36;3.57;;;2.90;;
8490;SDS011;4282;49.986;7.938;2023-02-28T15:56:06;3.20;;;2.77;;
8490;SDS011;4282;49.986;7.938;2023-02-28T15:58:44;4.07;;;3.67;;
8490;SDS011;4282;49.986;7.938;2023-02-28T16:01:19;4.73;;;3.70;;
8490;SDS011;4282;49.986;7.938;2023-02-28T16:03:50;5.73;;;4.77;;
8490;SDS011;4282;49.986;7.938;2023-02-28T16:06:22;3.40;;;2.80;;
8490;SDS011;4282;49.986;7.938;2023-02-28T16:09:03;7.03;;;4.47;;
8490;SDS011;4282;49.986;7.938;2023-02-28T16:11:33;5.23;;;3.50;;
8490;SDS011;4282;49.986;7.938;2023-02-28T16:14:03;5.97;;;3.23;;
8490;SDS011;4282;49.986;7.938;2023-02-28T16:16:41;4.00;;;3.10;;
8490;SDS011;4282;49.986;7.938;2023-02-28T16:19:10;5.57;;;4.20;;
8490;SDS011;4282;49.986;7.938;2023-02-28T16:21:39;4.53;;;4.13;;
8490;SDS011;4282;49.986;7.938;2023-02-28T16:24:08;4.83;;;4.20;;